Time;durP1;ratioP1;P1;durP2;ratioP2;P2;SDS_P1;SDS_P2;PMS_P1;PMS_P2;Temp;Humidity;BMP_temperature;BMP_pressure;BME280_temperature;BME280_humidity;BME280_pressure;Samples;Min_cycle;Max_cycle;Signal;HPM_P1;HPM_P2
2023/09/29 00:00:53;;;;;;;17.70;12.25;;;12.20;99.90;;;;;;5076902;28;20028;-64
2023/09/29 00:03:19;;;;;;;21.98;12.35;;;12.20;99.90;;;;;;5076756;28;20479;-64
2023/09/29 00:05:45;;;;;;;18.98;12.38;;;12.20;99.90;;;;;;5077046;28;20028;-64
2023/09/29 00:08:22;;;;;;;16.08;12.45;;;12.10;99.90;;;;;;5076511;28;20029;-64
2023/09/29 00:10:50;;;;;;;20.52;12.40;;;12.10;99.90;;;;;;5076951;28;20460;-64
2023/09/29 00:13:16;;;;;;;14.85;11.13;;;12.00;99.90;;;;;;5058656;28;20055;-64
2023/09/29 00:15:42;;;;;;;18.60;12.82;;;11.90;99.90;;;;;;5076556;28;20025;-65
2023/09/29 00:18:08;;;;;;;20.30;11.98;;;11.90;99.90;;;;;;5076587;28;20478;-65
2023/09/29 00:20:39;;;;;;;15.25;12.10;;;11.90;99.90;;;;;;5076622;28;20030;-64
2023/09/29 00:23:04;;;;;;;15.40;12.02;;;11.80;99.90;;;;;;5077188;28;20109;-65
2023/09/29 00:25:30;;;;;;;21.60;13.60;;;11.70;99.90;;;;;;5077797;28;20079;-67
2023/09/29 00:27:57;;;;;;;16.00;11.77;;;11.70;99.90;;;;;;5078316;28;20032;-64
2023/09/29 00:30:23;;;;;;;18.38;13.20;;;;;;;;;;5079251;28;20032;-64
2023/09/29 00:32:51;;;;;;;22.30;13.93;;;11.60;99.90;;;;;;5078662;28;20475;-64
2023/09/29 00:35:24;;;;;;;15.80;13.23;;;11.60;99.90;;;;;;5079625;28;20076;-65
2023/09/29 00:37:59;;;;;;;19.08;13.65;;;11.70;99.90;;;;;;5079576;28;20368;-65
2023/09/29 00:40:25;;;;;;;19.23;13.52;;;11.60;99.90;;;;;;5076657;28;20024;-64
2023/09/29 00:42:52;;;;;;;15.63;12.18;;;11.60;99.90;;;;;;5058225;28;20082;-65
2023/09/29 00:45:20;;;;;;;16.55;12.40;;;11.60;99.90;;;;;;5075150;28;20376;-64
2023/09/29 00:47:49;;;;;;;16.42;13.02;;;11.60;99.90;;;;;;5058031;28;20120;-64
2023/09/29 00:50:15;;;;;;;20.65;12.70;;;11.60;99.90;;;;;;5058065;28;20484;-65
2023/09/29 00:52:42;;;;;;;15.88;12.75;;;11.60;99.90;;;;;;5076283;28;20021;-64
2023/09/29 00:55:16;;;;;;;17.58;13.00;;;11.60;99.90;;;;;;5058357;28;20419;-64
2023/09/29 00:57:44;;;;;;;15.95;12.52;;;11.60;99.90;;;;;;5076144;28;20473;-65
2023/09/29 01:00:29;;;;;;;17.30;12.43;;;11.50;99.90;;;;;;5057790;28;20075;-64
2023/09/29 01:03:06;;;;;;;18.90;12.77;;;11.50;99.90;;;;;;5075782;28;20190;-64
2023/09/29 01:05:36;;;;;;;17.23;12.38;;;11.50;99.90;;;;;;5076004;28;20114;-64
2023/09/29 01:08:05;;;;;;;18.08;13.75;;;11.40;99.90;;;;;;5058244;28;20063;-65
2023/09/29 01:10:32;;;;;;;19.20;12.52;;;11.40;99.90;;;;;;5075585;28;20082;-64
2023/09/29 01:12:58;;;;;;;19.60;14.13;;;11.50;99.90;;;;;;5075513;28;20036;-64
2023/09/29 01:15:27;;;;;;;20.27;13.20;;;11.50;99.90;;;;;;5075514;28;20054;-64
2023/09/29 01:17:52;;;;;;;15.67;12.33;;;11.50;99.90;;;;;;5075361;28;20044;-64
2023/09/29 01:20:28;;;;;;;16.45;12.38;;;11.50;99.90;;;;;;5057333;28;20020;-64
2023/09/29 01:23:00;;;;;;;17.73;12.82;;;11.50;99.90;;;;;;5075804;28;20024;-64
2023/09/29 01:25:29;;;;;;;22.30;12.15;;;11.40;99.90;;;;;;5075257;28;20107;-64
2023/09/29 01:27:56;;;;;;;15.98;12.45;;;11.40;99.90;;;;;;5075121;28;20032;-64
2023/09/29 01:30:22;;;;;;;18.58;13.30;;;11.30;99.90;;;;;;5057209;28;20070;-64
2023/09/29 01:32:51;;;;;;;17.33;12.52;;;11.30;99.90;;;;;;5057214;28;20024;-64
2023/09/29 01:35:17;;;;;;;20.45;12.38;;;11.30;99.90;;;;;;5074836;28;20123;-64
2023/09/29 01:37:48;;;;;;;19.75;12.35;;;11.30;99.90;;;;;;5056842;28;20025;-64
2023/09/29 01:40:15;;;;;;;17.98;12.45;;;11.20;99.90;;;;;;5074937;28;20028;-64
2023/09/29 01:42:44;;;;;;;18.25;13.60;;;11.10;99.90;;;;;;5074861;28;20373;-64
2023/09/29 01:45:14;;;;;;;18.92;13.00;;;11.10;99.90;;;;;;5074712;28;20078;-65
2023/09/29 01:47:41;;;;;;;18.92;12.50;;;11.10;99.90;;;;;;5056798;28;20457;-64
2023/09/29 01:50:07;;;;;;;17.50;12.60;;;11.00;99.90;;;;;;5074741;28;20050;-63
2023/09/29 01:52:33;;;;;;;20.48;14.25;;;11.00;99.90;;;;;;5074734;28;20029;-65
2023/09/29 01:55:00;;;;;;;21.30;13.88;;;11.00;99.90;;;;;;5074187;28;20100;-64
2023/09/29 01:57:26;;;;;;;19.42;13.70;;;10.90;99.90;;;;;;5056204;28;20174;-64
2023/09/29 01:59:52;;;;;;;28.25;14.45;;;10.90;99.90;;;;;;5074868;28;20059;-64
2023/09/29 02:02:17;;;;;;;23.00;15.23;;;10.90;99.90;;;;;;5056590;28;20083;-64
2023/09/29 02:04:43;;;;;;;20.45;14.35;;;10.90;99.90;;;;;;5074684;28;20039;-65
2023/09/29 02:07:09;;;;;;;23.30;14.27;;;10.90;99.90;;;;;;5074000;28;20029;-64
2023/09/29 02:09:34;;;;;;;20.52;14.25;;;10.90;99.90;;;;;;5056382;28;20632;-65
2023/09/29 02:12:01;;;;;;;17.13;13.73;;;10.80;99.90;;;;;;5074298;28;20021;-64
2023/09/29 02:14:28;;;;;;;23.08;13.55;;;10.80;99.90;;;;;;5056232;28;20027;-65
2023/09/29 02:16:54;;;;;;;21.65;14.30;;;10.80;99.90;;;;;;5056328;28;20036;-64
2023/09/29 02:19:20;;;;;;;16.40;13.13;;;10.80;99.90;;;;;;5074547;28;20024;-65
2023/09/29 02:21:45;;;;;;;19.05;13.07;;;10.80;99.90;;;;;;5074423;28;20058;-64
2023/09/29 02:24:12;;;;;;;20.55;14.55;;;10.70;99.90;;;;;;5074186;28;20103;-65
2023/09/29 02:26:38;;;;;;;19.02;14.40;;;10.80;99.90;;;;;;5075184;28;20028;-64
2023/09/29 02:29:11;;;;;;;22.70;14.07;;;10.70;99.90;;;;;;5075508;28;20032;-65
2023/09/29 02:31:36;;;;;;;24.88;14.65;;;10.60;99.90;;;;;;5075626;28;20027;-65
2023/09/29 02:34:03;;;;;;;23.65;15.45;;;10.60;99.90;;;;;;5074384;28;20032;-64
2023/09/29 02:36:29;;;;;;;18.25;13.00;;;10.60;99.90;;;;;;5079435;28;20052;-65
2023/09/29 02:38:55;;;;;;;21.65;14.38;;;10.60;99.90;;;;;;5094169;28;20045;-64
2023/09/29 02:41:20;;;;;;;24.42;15.20;;;10.60;99.90;;;;;;5093993;28;20024;-65
2023/09/29 02:43:46;;;;;;;20.35;15.07;;;10.60;99.90;;;;;;5094368;28;20364;-65
2023/09/29 02:46:15;;;;;;;19.60;14.00;;;10.60;99.90;;;;;;5094020;28;20030;-65
2023/09/29 02:48:42;;;;;;;19.70;13.50;;;10.50;99.90;;;;;;5094119;28;20353;-65
2023/09/29 02:51:18;;;;;;;20.17;14.70;;;10.50;99.90;;;;;;5092691;28;20376;-65
2023/09/29 02:53:44;;;;;;;22.25;14.70;;;10.50;99.90;;;;;;5092705;28;20020;-64
2023/09/29 02:56:11;;;;;;;17.58;14.20;;;10.50;99.90;;;;;;5092827;28;20028;-65
2023/09/29 02:58:41;;;;;;;20.80;14.02;;;10.50;99.90;;;;;;5092669;28;20059;-64
2023/09/29 03:01:07;;;;;;;;;;;10.50;99.90;;;;;;5094400;28;20069;-64
2023/09/29 03:03:33;;;;;;;20.50;14.52;;;10.40;99.90;;;;;;5093978;28;19904;-65
2023/09/29 03:05:58;;;;;;;20.48;14.20;;;10.40;99.90;;;;;;5094351;28;20410;-64
2023/09/29 03:08:24;;;;;;;20.55;14.77;;;10.40;99.90;;;;;;5095950;28;20043;-65
2023/09/29 03:10:50;;;;;;;19.42;14.95;;;10.40;99.90;;;;;;5096740;28;20028;-64
2023/09/29 03:13:16;;;;;;;21.02;15.07;;;10.30;99.90;;;;;;5097730;28;20032;-64
2023/09/29 03:15:41;;;;;;;21.58;15.70;;;10.30;99.90;;;;;;5097993;28;20062;-64
2023/09/29 03:18:07;;;;;;;18.13;14.52;;;10.30;99.90;;;;;;5097927;28;20032;-64
2023/09/29 03:20:33;;;;;;;19.30;14.52;;;10.30;99.90;;;;;;5097507;28;20020;-64
2023/09/29 03:23:04;;;;;;;26.48;15.77;;;10.30;99.90;;;;;;5098419;28;20459;-65
2023/09/29 03:25:29;;;;;;;24.25;15.60;;;10.30;99.90;;;;;;5098159;28;20043;-65
2023/09/29 03:27:55;;;;;;;20.95;13.70;;;10.30;99.90;;;;;;5096352;28;20472;-65
2023/09/29 03:30:21;;;;;;;18.38;14.98;;;10.40;99.90;;;;;;5098015;28;20024;-65
2023/09/29 03:32:47;;;;;;;22.60;15.07;;;10.40;99.90;;;;;;5097851;28;20481;-65
2023/09/29 03:35:13;;;;;;;19.92;14.57;;;10.30;99.90;;;;;;5094829;28;20072;-65
2023/09/29 03:37:39;;;;;;;21.02;15.15;;;10.30;99.90;;;;;;5077432;28;20372;-65
2023/09/29 03:40:09;;;;;;;22.00;15.25;;;10.20;99.90;;;;;;5077253;28;20032;-64
2023/09/29 03:42:41;;;;;;;19.90;15.23;;;10.20;99.90;;;;;;5077235;28;20024;-64
2023/09/29 03:45:09;;;;;;;18.67;14.90;;;10.20;99.90;;;;;;5077428;28;20114;-64
2023/09/29 03:47:35;;;;;;;25.25;14.55;;;10.20;99.90;;;;;;5058948;28;20119;-64
2023/09/29 03:50:01;;;;;;;21.60;14.70;;;10.20;99.90;;;;;;5059053;28;20063;-65
2023/09/29 03:52:29;;;;;;;30.05;14.82;;;10.10;99.90;;;;;;5076725;28;20441;-66
2023/09/29 03:54:55;;;;;;;21.52;14.05;;;10.20;99.90;;;;;;5059062;28;20024;-64
2023/09/29 03:57:22;;;;;;;20.45;14.68;;;10.20;99.90;;;;;;5077082;28;20086;-64
2023/09/29 03:59:47;;;;;;;23.48;14.45;;;10.20;99.90;;;;;;5058872;28;20027;-64
2023/09/29 04:02:13;;;;;;;19.17;14.85;;;10.10;99.90;;;;;;5076469;28;20049;-64
2023/09/29 04:04:39;;;;;;;23.38;14.82;;;10.10;99.90;;;;;;5058878;28;20028;-64
2023/09/29 04:07:05;;;;;;;18.45;14.40;;;10.10;99.90;;;;;;5076309;28;20024;-65
2023/09/29 04:09:30;;;;;;;20.70;15.25;;;10.00;99.90;;;;;;5076907;28;20039;-64
2023/09/29 04:11:56;;;;;;;19.08;15.27;;;10.00;99.90;;;;;;5076700;28;20057;-64
2023/09/29 04:14:22;;;;;;;23.00;15.25;;;10.00;99.90;;;;;;5076703;28;20430;-64
2023/09/29 04:16:47;;;;;;;18.83;14.43;;;10.00;99.90;;;;;;5058530;28;20032;-63
2023/09/29 04:19:14;;;;;;;24.35;15.90;;;10.00;99.90;;;;;;5074969;28;20071;-63
2023/09/29 04:21:40;;;;;;;19.08;15.00;;;9.90;99.90;;;;;;5076439;28;20027;-64
2023/09/29 04:24:05;;;;;;;19.67;14.25;;;9.90;99.90;;;;;;5076523;28;20028;-57
2023/09/29 04:26:31;;;;;;;23.45;15.25;;;9.90;99.90;;;;;;5076243;28;20028;-57
2023/09/29 04:28:57;;;;;;;22.02;15.73;;;9.90;99.90;;;;;;5058314;28;20029;-65
2023/09/29 04:31:23;;;;;;;19.42;14.95;;;9.90;99.90;;;;;;5075991;28;20063;-64
2023/09/29 04:33:48;;;;;;;20.83;15.20;;;9.90;99.90;;;;;;5076162;28;20029;-65
2023/09/29 04:36:14;;;;;;;23.70;14.20;;;9.90;99.90;;;;;;5076234;28;20048;-65
2023/09/29 04:38:41;;;;;;;21.70;16.00;;;9.90;99.90;;;;;;5058142;28;20025;-65
2023/09/29 04:41:07;;;;;;;20.40;14.82;;;9.90;99.90;;;;;;5076112;28;20020;-64
2023/09/29 04:43:32;;;;;;;17.60;14.05;;;9.80;99.90;;;;;;5058117;28;20422;-65
2023/09/29 04:45:58;;;;;;;21.98;14.93;;;9.80;99.90;;;;;;5075613;28;20029;-65
2023/09/29 04:48:23;;;;;;;22.00;15.18;;;9.90;99.90;;;;;;5075943;28;20052;-65
2023/09/29 04:50:49;;;;;;;20.48;15.07;;;9.90;99.90;;;;;;5076173;28;20027;-64
2023/09/29 04:53:15;;;;;;;24.15;15.13;;;9.90;99.90;;;;;;5075803;28;20024;-65
2023/09/29 04:55:41;;;;;;;20.90;15.18;;;9.90;99.90;;;;;;5075785;28;20021;-64
2023/09/29 04:58:09;;;;;;;23.58;14.73;;;9.90;99.90;;;;;;5075983;28;20033;-65
2023/09/29 05:00:35;;;;;;;22.15;14.43;;;9.90;99.90;;;;;;5057683;28;20090;-65
2023/09/29 05:03:01;;;;;;;22.90;16.27;;;9.90;99.90;;;;;;5076194;28;20025;-65
2023/09/29 05:05:27;;;;;;;20.98;14.98;;;9.90;99.90;;;;;;5075483;28;20031;-64
2023/09/29 05:07:52;;;;;;;22.92;14.98;;;9.90;99.90;;;;;;5075528;28;20059;-65
2023/09/29 05:10:19;;;;;;;21.65;14.60;;;9.80;99.90;;;;;;5057550;28;20029;-65
2023/09/29 05:12:45;;;;;;;27.23;15.43;;;9.90;99.90;;;;;;5058320;28;20032;-65
2023/09/29 05:15:11;;;;;;;21.95;15.38;;;9.90;99.90;;;;;;5038073;28;20043;-64
2023/09/29 05:17:40;;;;;;;21.65;14.70;;;9.90;99.90;;;;;;5038240;28;20079;-65
2023/09/29 05:20:06;;;;;;;24.13;15.07;;;9.90;99.90;;;;;;5037405;28;20029;-65
2023/09/29 05:22:32;;;;;;;19.95;14.45;;;9.90;99.90;;;;;;5055688;28;20029;-64
2023/09/29 05:25:01;;;;;;;24.40;16.00;;;10.00;99.90;;;;;;5054889;28;20050;-65
2023/09/29 05:27:29;;;;;;;25.10;16.20;;;10.00;99.90;;;;;;5037144;28;20068;-65
2023/09/29 05:29:56;;;;;;;21.63;15.07;;;10.10;99.90;;;;;;5054877;28;20033;-65
2023/09/29 05:32:22;;;;;;;28.20;15.50;;;10.10;99.90;;;;;;5055452;28;20017;-64
2023/09/29 05:34:47;;;;;;;25.67;14.05;;;10.10;99.90;;;;;;5054783;28;20032;-65
2023/09/29 05:37:13;;;;;;;20.75;13.93;;;10.10;99.90;;;;;;5055421;28;20059;-65
2023/09/29 05:39:40;;;;;;;22.50;14.35;;;10.10;99.90;;;;;;5037074;28;20025;-65
2023/09/29 05:42:06;;;;;;;22.35;14.43;;;10.10;99.90;;;;;;5037124;28;20057;-64
2023/09/29 05:44:31;;;;;;;22.10;14.80;;;10.20;99.90;;;;;;5055279;28;20048;-65
2023/09/29 05:46:57;;;;;;;18.35;13.68;;;10.30;99.90;;;;;;5054767;28;20036;-65
2023/09/29 05:49:23;;;;;;;21.95;14.15;;;10.30;99.90;;;;;;5054913;28;20033;-65
2023/09/29 05:51:48;;;;;;;24.40;15.05;;;10.40;99.90;;;;;;5054695;28;20033;-65
2023/09/29 05:54:14;;;;;;;18.85;14.00;;;10.40;99.90;;;;;;5054399;28;20029;-65
2023/09/29 05:56:40;;;;;;;20.85;13.98;;;10.50;99.90;;;;;;5054725;28;20433;-65
2023/09/29 05:59:05;;;;;;;19.20;13.52;;;10.50;99.90;;;;;;5036943;28;20506;-65
2023/09/29 06:01:31;;;;;;;17.52;12.98;;;10.60;99.90;;;;;;5037099;28;20090;-65
2023/09/29 06:03:56;;;;;;;19.25;12.60;;;10.60;99.90;;;;;;5036897;28;20025;-65
2023/09/29 06:06:23;;;;;;;20.02;13.80;;;10.70;99.90;;;;;;5054792;28;20029;-65
2023/09/29 06:08:49;;;;;;;15.05;12.43;;;11.00;99.90;;;;;;5057792;28;20041;-65
2023/09/29 06:11:14;;;;;;;17.88;12.32;;;11.30;99.90;;;;;;5043588;28;20032;-65
2023/09/29 06:13:42;;;;;;;25.70;13.48;;;11.60;99.90;;;;;;5060059;28;20032;-65
2023/09/29 06:16:08;;;;;;;17.27;11.10;;;11.80;99.90;;;;;;5042363;28;20472;-65
2023/09/29 06:18:34;;;;;;;19.83;11.10;;;11.90;99.90;;;;;;5057599;28;20376;-65
2023/09/29 06:21:00;;;;;;;17.52;10.23;;;12.10;99.90;;;;;;5054129;28;20032;-65
2023/09/29 06:23:26;;;;;;;21.10;10.45;;;12.20;99.90;;;;;;5036600;28;20033;-65
2023/09/29 06:26:01;;;;;;;16.88;9.88;;;12.20;99.90;;;;;;5054225;28;20029;-65
2023/09/29 06:28:27;;;;;;;16.05;10.25;;;12.30;99.90;;;;;;5036313;28;20481;-65
2023/09/29 06:30:57;;;;;;;17.42;9.85;;;12.40;99.90;;;;;;5053939;28;20025;-65
2023/09/29 06:33:23;;;;;;;13.75;9.70;;;12.40;99.90;;;;;;5053605;28;20024;-65
2023/09/29 06:35:49;;;;;;;15.80;9.98;;;12.40;99.90;;;;;;5053610;28;20053;-65
2023/09/29 06:38:15;;;;;;;14.50;9.45;;;12.60;99.90;;;;;;5036006;28;20123;-65
2023/09/29 06:40:43;;;;;;;21.58;10.13;;;12.60;99.90;;;;;;5053779;28;20100;-65
2023/09/29 06:43:09;;;;;;;14.38;10.02;;;12.60;99.90;;;;;;5053304;28;20445;-65
2023/09/29 06:45:34;;;;;;;16.05;9.55;;;12.70;99.90;;;;;;5053806;28;20083;-65
2023/09/29 06:48:00;;;;;;;16.92;10.30;;;12.80;99.90;;;;;;5035989;28;20465;-65
2023/09/29 06:50:26;;;;;;;14.15;8.95;;;13.00;99.90;;;;;;5053459;28;20044;-65
2023/09/29 06:52:51;;;;;;;17.30;9.70;;;13.10;99.90;;;;;;5035809;28;20029;-65
2023/09/29 06:55:17;;;;;;;14.90;8.80;;;13.20;99.90;;;;;;5035801;28;20028;-65
2023/09/29 06:57:43;;;;;;;21.20;9.00;;;13.50;99.90;;;;;;5053441;28;20431;-65
2023/09/29 07:00:09;;;;;;;11.38;8.23;;;13.80;99.90;;;;;;5053654;28;20021;-65
2023/09/29 07:02:36;;;;;;;15.77;7.63;;;14.20;99.90;;;;;;5053874;28;20033;-65
2023/09/29 07:05:02;;;;;;;11.55;7.38;;;14.70;99.90;;;;;;5053417;28;20461;-65
2023/09/29 07:07:27;;;;;;;13.40;7.78;;;15.00;99.90;;;;;;5053574;28;20037;-66
2023/09/29 07:09:53;;;;;;;10.40;6.53;;;15.40;99.90;;;;;;5035620;28;20514;-65
2023/09/29 07:12:19;;;;;;;16.17;7.22;;;15.80;99.90;;;;;;5053444;28;20033;-65
2023/09/29 07:14:44;;;;;;;9.60;6.95;;;16.10;99.90;;;;;;5053175;28;20057;-65
2023/09/29 07:17:11;;;;;;;15.05;6.82;;;16.60;99.90;;;;;;5053746;28;20441;-65
2023/09/29 07:19:36;;;;;;;13.23;7.13;;;17.00;99.90;;;;;;5053422;28;20079;-65
2023/09/29 07:22:02;;;;;;;12.80;6.57;;;17.50;99.90;;;;;;5053143;28;20458;-65
2023/09/29 07:24:28;;;;;;;9.13;6.65;;;18.10;99.90;;;;;;5035467;28;20032;-65
2023/09/29 07:26:53;;;;;;;11.23;6.82;;;18.70;99.90;;;;;;5053082;28;20025;-65
2023/09/29 07:29:19;;;;;;;9.40;6.18;;;19.30;99.90;;;;;;5053277;28;20029;-65
2023/09/29 07:31:48;;;;;;;10.45;6.45;;;19.80;99.90;;;;;;5053747;28;20365;-65
2023/09/29 07:34:17;;;;;;;19.25;5.78;;;20.30;99.90;;;;;;5053231;28;20029;-66
2023/09/29 07:36:44;;;;;;;8.48;6.18;;;20.70;99.90;;;;;;5053487;28;20049;-66
2023/09/29 07:39:14;;;;;;;14.00;6.20;;;21.10;99.70;;;;;;5053504;28;20484;-63
2023/09/29 07:41:40;;;;;;;11.00;6.25;;;21.50;99.30;;;;;;5053640;28;20453;-63
2023/09/29 07:44:06;;;;;;;11.38;5.75;;;21.70;98.90;;;;;;5052978;28;20083;-63
2023/09/29 07:46:33;;;;;;;10.27;6.03;;;22.00;97.00;;;;;;5053134;28;20120;-66
2023/09/29 07:48:58;;;;;;;10.40;6.35;;;22.40;96.90;;;;;;5035633;28;20057;-64
2023/09/29 07:51:25;;;;;;;10.90;6.93;;;22.90;94.50;;;;;;5054388;28;20419;-64
2023/09/29 07:53:51;;;;;;;8.27;5.65;;;23.40;93.30;;;;;;5055722;28;20021;-66
2023/09/29 07:56:17;;;;;;;9.13;5.55;;;23.70;92.20;;;;;;5039202;28;20032;-66
2023/09/29 07:58:42;;;;;;;8.32;5.53;;;23.90;92.10;;;;;;5057161;28;20029;-66
2023/09/29 08:01:08;;;;;;;9.65;5.32;;;24.00;91.40;;;;;;5056593;28;20021;-67
2023/09/29 08:03:34;;;;;;;10.13;4.97;;;24.40;90.80;;;;;;5039121;28;20029;-66
2023/09/29 08:06:00;;;;;;;7.40;4.88;;;24.60;90.80;;;;;;5039432;28;20423;-66
2023/09/29 08:08:25;;;;;;;13.45;5.00;;;25.00;87.40;;;;;;5056630;28;20053;-67
2023/09/29 08:10:52;;;;;;;7.93;4.68;;;25.30;85.60;;;;;;5056744;28;20070;-66
2023/09/29 08:13:18;;;;;;;12.95;4.88;;;25.40;84.00;;;;;;5057207;28;20372;-66
2023/09/29 08:15:45;;;;;;;10.32;4.50;;;25.70;80.60;;;;;;5056724;28;20020;-67
2023/09/29 08:18:10;;;;;;;7.80;4.53;;;25.80;79.40;;;;;;5056724;28;20036;-66
2023/09/29 08:20:37;;;;;;;6.88;4.80;;;26.10;78.30;;;;;;5056717;28;20029;-67
2023/09/29 08:23:02;;;;;;;11.80;4.85;;;26.30;77.50;;;;;;5038929;28;20028;-67
2023/09/29 08:25:29;;;;;;;10.32;4.60;;;26.30;76.40;;;;;;5056507;28;20025;-66
2023/09/29 08:27:56;;;;;;;12.93;4.68;;;26.40;75.30;;;;;;5056709;28;20082;-67
2023/09/29 08:30:22;;;;;;;8.32;4.80;;;26.60;76.40;;;;;;5056584;28;20039;-67
2023/09/29 08:32:47;;;;;;;7.57;4.38;;;26.80;74.60;;;;;;5056176;28;20598;-67
2023/09/29 08:35:13;;;;;;;10.95;4.85;;;27.00;72.30;;;;;;5055995;28;20041;-67
2023/09/29 08:37:40;;;;;;;8.15;4.78;;;27.10;73.20;;;;;;5038693;28;20036;-66
2023/09/29 08:40:12;;;;;;;11.48;4.85;;;27.40;70.20;;;;;;5056836;28;20029;-64
2023/09/29 08:42:40;;;;;;;13.57;5.03;;;27.80;68.50;;;;;;5038710;28;20425;-65
2023/09/29 08:45:09;;;;;;;7.32;4.32;;;27.80;69.60;;;;;;5056034;28;20060;-64
2023/09/29 08:47:40;;;;;;;7.25;4.38;;;28.00;67.20;;;;;;5056102;28;20427;-65
2023/09/29 08:50:08;;;;;;;11.55;4.88;;;28.40;67.00;;;;;;5056045;28;20080;-65
2023/09/29 08:52:35;;;;;;;7.60;4.30;;;28.60;66.80;;;;;;5055972;28;20041;-66
2023/09/29 08:55:03;;;;;;;8.02;4.00;;;29.10;66.40;;;;;;5037828;28;20461;-67
2023/09/29 08:57:29;;;;;;;8.57;4.15;;;29.70;64.40;;;;;;5055860;28;20036;-67
2023/09/29 08:59:55;;;;;;;7.35;3.90;;;30.10;62.30;;;;;;5055964;28;20036;-66
2023/09/29 09:02:26;;;;;;;5.75;3.72;;;30.20;59.00;;;;;;5055619;28;20484;-67
2023/09/29 09:04:53;;;;;;;6.00;3.88;;;30.50;56.40;;;;;;5054928;28;20036;-67
2023/09/29 09:07:19;;;;;;;6.72;4.00;;;30.60;56.00;;;;;;5037890;28;20032;-67
2023/09/29 09:09:50;;;;;;;9.63;3.80;;;31.00;54.70;;;;;;5055727;28;20078;-67
2023/09/29 09:12:16;;;;;;;6.38;3.53;;;31.30;54.80;;;;;;5058203;28;20047;-67
2023/09/29 09:14:45;;;;;;;4.78;3.33;;;31.40;52.70;;;;;;5056788;28;20032;-67
2023/09/29 09:17:11;;;;;;;8.80;3.58;;;31.90;51.60;;;;;;5055437;28;20072;-67
2023/09/29 09:19:47;;;;;;;6.72;3.63;;;32.20;50.10;;;;;;5055382;28;20056;-67
2023/09/29 09:22:14;;;;;;;6.75;3.92;;;32.70;49.30;;;;;;5037903;28;20040;-67
2023/09/29 09:24:40;;;;;;;11.15;5.10;;;33.20;48.60;;;;;;5055334;28;20400;-67
2023/09/29 09:27:06;;;;;;;3.95;3.38;;;32.70;48.80;;;;;;5055461;28;20128;-66
2023/09/29 09:29:39;;;;;;;6.95;3.85;;;32.40;48.70;;;;;;5037665;28;20071;-67
2023/09/29 09:32:06;;;;;;;12.15;4.28;;;32.00;48.60;;;;;;5055472;28;20021;-67
2023/09/29 09:34:33;;;;;;;10.52;3.88;;;32.30;48.20;;;;;;5037450;28;20423;-66
2023/09/29 09:36:58;;;;;;;8.27;3.60;;;32.60;48.20;;;;;;5055246;28;20505;-66
2023/09/29 09:39:24;;;;;;;9.38;4.10;;;32.70;47.90;;;;;;5055283;28;20025;-67
2023/09/29 09:41:54;;;;;;;5.63;4.22;;;33.00;47.30;;;;;;5055078;28;20053;-67
2023/09/29 09:44:25;;;;;;;5.63;3.85;;;33.20;46.80;;;;;;5037025;28;20025;-67
2023/09/29 09:46:53;;;;;;;6.00;3.85;;;33.80;46.00;;;;;;5054894;28;20025;-67
2023/09/29 09:49:24;;;;;;;5.57;3.47;;;34.10;45.50;;;;;;5036873;28;20029;-67
2023/09/29 09:51:52;;;;;;;7.70;3.42;;;34.50;44.50;;;;;;5037121;28;20025;-67
2023/09/29 09:54:28;;;;;;;10.77;4.28;;;33.90;44.60;;;;;;5054676;28;20021;-67
2023/09/29 09:57:08;;;;;;;7.38;3.92;;;33.90;44.80;;;;;;5036817;28;20039;-67
2023/09/29 09:59:35;;;;;;;6.75;3.63;;;34.20;44.20;;;;;;5054990;28;20155;-67
2023/09/29 10:02:06;;;;;;;6.43;3.63;;;34.20;44.40;;;;;;5036661;28;20025;-67
2023/09/29 10:04:35;;;;;;;6.00;3.63;;;34.20;43.80;;;;;;5054656;28;20031;-67
2023/09/29 10:07:03;;;;;;;6.72;3.75;;;34.20;43.30;;;;;;5054435;28;20029;-67
2023/09/29 10:09:38;;;;;;;;;;;34.40;43.00;;;;;;5036973;28;20358;-67
2023/09/29 10:12:05;;;;;;;6.20;3.33;;;34.00;43.30;;;;;;5054963;28;19905;-67
2023/09/29 10:14:41;;;;;;;10.02;4.07;;;34.60;42.60;;;;;;5036878;28;20079;-68
2023/09/29 10:17:07;;;;;;;7.28;3.50;;;34.90;42.10;;;;;;5035710;28;20125;-67
2023/09/29 10:19:39;;;;;;;6.10;3.80;;;35.30;41.90;;;;;;5036682;28;20120;-67
2023/09/29 10:22:07;;;;;;;8.15;4.28;;;35.50;41.20;;;;;;5036490;28;20025;-67
2023/09/29 10:24:33;;;;;;;9.45;4.25;;;34.90;41.80;;;;;;5036311;28;20029;-67
2023/09/29 10:27:03;;;;;;;5.38;3.78;;;34.90;41.50;;;;;;5054403;28;20037;-67
2023/09/29 10:29:30;;;;;;;7.88;4.07;;;35.30;41.20;;;;;;5035968;28;20040;-67
2023/09/29 10:32:15;;;;;;;9.68;4.28;;;35.30;40.90;;;;;;5054245;28;20034;-67
2023/09/29 10:34:41;;;;;;;8.25;3.88;;;35.70;40.50;;;;;;5054287;28;20032;-67
2023/09/29 10:37:09;;;;;;;6.20;3.55;;;35.90;40.00;;;;;;5054291;28;20080;-67
2023/09/29 10:39:35;;;;;;;7.60;3.90;;;35.90;40.10;;;;;;5054193;28;20043;-67
2023/09/29 10:42:14;;;;;;;9.15;4.13;;;35.30;40.10;;;;;;5055299;28;20028;-68
2023/09/29 10:44:52;;;;;;;9.20;3.80;;;35.10;40.70;;;;;;5061132;28;20025;-68
2023/09/29 10:47:29;;;;;;;5.43;4.05;;;35.60;39.90;;;;;;5061172;28;20075;-68
2023/09/29 10:49:55;;;;;;;8.00;4.10;;;35.30;40.40;;;;;;5061016;28;20041;-67
2023/09/29 10:52:22;;;;;;;8.48;4.00;;;35.00;40.20;;;;;;5039913;28;20048;-67
2023/09/29 10:54:55;;;;;;;3.65;3.20;;;35.20;40.00;;;;;;5054893;28;20025;-67
2023/09/29 10:57:21;;;;;;;4.20;3.42;;;35.70;39.60;;;;;;5036254;28;20043;-67
2023/09/29 10:59:48;;;;;;;5.78;3.50;;;36.10;39.30;;;;;;5035692;28;20025;-67
2023/09/29 11:02:14;;;;;;;6.47;3.70;;;36.50;38.90;;;;;;5054103;28;20025;-67
2023/09/29 11:04:39;;;;;;;5.22;3.28;;;36.70;38.30;;;;;;5053685;28;20086;-67
2023/09/29 11:07:05;;;;;;;5.90;3.40;;;36.60;37.90;;;;;;5053712;28;20025;-67
2023/09/29 11:09:32;;;;;;;6.88;3.90;;;36.90;38.20;;;;;;5053397;28;20029;-67
2023/09/29 11:11:58;;;;;;;8.35;3.75;;;37.30;37.40;;;;;;5053758;28;20029;-67
2023/09/29 11:14:38;;;;;;;6.95;3.30;;;37.70;37.30;;;;;;5036172;28;20074;-68
2023/09/29 11:17:04;;;;;;;7.00;3.50;;;37.90;37.30;;;;;;5036770;28;20492;-67
2023/09/29 11:19:30;;;;;;;6.43;3.55;;;38.20;36.50;;;;;;5053865;28;20061;-67
2023/09/29 11:22:01;;;;;;;6.63;3.30;;;38.20;36.20;;;;;;5036287;28;20037;-67
2023/09/29 11:24:40;;;;;;;5.93;3.40;;;37.90;36.60;;;;;;5035414;28;20036;-68
2023/09/29 11:27:12;;;;;;;6.05;3.65;;;37.90;36.40;;;;;;5035896;28;20033;-68
2023/09/29 11:29:38;;;;;;;8.43;3.85;;;38.20;36.30;;;;;;5057145;28;20025;-67
2023/09/29 11:32:04;;;;;;;5.35;3.38;;;38.10;36.00;;;;;;5057401;28;20025;-67
2023/09/29 11:34:31;;;;;;;6.38;3.40;;;38.30;36.00;;;;;;5057569;28;20025;-68
2023/09/29 11:36:57;;;;;;;5.38;3.42;;;38.30;34.80;;;;;;5070635;28;20108;-68
2023/09/29 11:39:23;;;;;;;5.80;3.33;;;38.40;35.40;;;;;;5076381;28;20116;-68
2023/09/29 11:41:48;;;;;;;8.70;3.63;;;38.10;35.10;;;;;;5076172;28;20040;-67
2023/09/29 11:44:17;;;;;;;7.38;4.28;;;38.00;35.60;;;;;;5077358;28;20029;-68
2023/09/29 11:46:43;;;;;;;7.15;3.80;;;37.70;35.60;;;;;;5075943;28;20029;-68
2023/09/29 11:49:09;;;;;;;7.22;3.17;;;37.70;35.80;;;;;;5077144;28;20020;-68
2023/09/29 11:51:35;;;;;;;4.53;3.38;;;38.00;35.70;;;;;;5077130;28;20082;-68
2023/09/29 11:54:02;;;;;;;8.45;3.55;;;38.30;34.40;;;;;;5076807;28;20457;-68
2023/09/29 11:56:28;;;;;;;7.20;3.53;;;38.20;34.70;;;;;;5077283;28;20056;-68
2023/09/29 11:58:56;;;;;;;8.80;3.30;;;38.50;34.90;;;;;;5075942;28;20459;-68
2023/09/29 12:01:22;;;;;;;5.63;3.30;;;38.60;34.30;;;;;;5076898;28;20107;-68
2023/09/29 12:03:47;;;;;;;4.15;3.75;;;38.70;33.90;;;;;;5076937;28;20439;-68
2023/09/29 12:06:13;;;;;;;7.05;3.08;;;38.70;33.50;;;;;;5076783;28;20036;-68
2023/09/29 12:08:39;;;;;;;7.10;3.20;;;38.30;34.40;;;;;;5077115;28;20025;-67
2023/09/29 12:11:05;;;;;;;6.05;3.13;;;38.20;34.40;;;;;;5076914;28;20052;-67
2023/09/29 12:13:33;;;;;;;4.18;3.10;;;38.40;33.90;;;;;;5076882;28;20033;-67
2023/09/29 12:15:59;;;;;;;8.45;4.03;;;37.90;34.20;;;;;;5077069;28;20025;-68
2023/09/29 12:18:26;;;;;;;7.20;3.38;;;38.20;34.10;;;;;;5076612;28;20040;-68
2023/09/29 12:20:52;;;;;;;10.93;3.30;;;37.90;34.30;;;;;;5076791;28;20040;-68
2023/09/29 12:23:18;;;;;;;7.25;3.60;;;38.10;34.10;;;;;;5076789;28;20036;-67
2023/09/29 12:25:44;;;;;;;4.65;3.42;;;38.40;34.50;;;;;;5076909;28;20028;-68
2023/09/29 12:28:09;;;;;;;6.63;3.38;;;38.30;34.00;;;;;;5076554;28;20028;-68
2023/09/29 12:30:35;;;;;;;6.93;3.60;;;38.00;34.00;;;;;;5077029;28;20029;-68
2023/09/29 12:33:01;;;;;;;6.05;3.25;;;37.80;34.00;;;;;;5077489;28;20476;-68
2023/09/29 12:35:27;;;;;;;5.22;3.03;;;37.90;34.00;;;;;;5076206;28;20049;-68